createdAt,value
2019-05-17T00:00:01.180Z,80.98
2019-05-17T00:02:34.220Z,81.00
2019-05-17T00:05:07.016Z,80.96
2019-05-17T00:07:39.538Z,80.98
2019-05-17T00:10:12.580Z,80.99
2019-05-17T00:12:46.904Z,80.88
2019-05-17T00:15:18.219Z,80.97
2019-05-17T00:17:50.118Z,81.04
2019-05-17T00:20:22.405Z,81.04
2019-05-17T00:22:54.238Z,81.04
2019-05-17T00:25:27.362Z,81.04
2019-05-17T00:27:59.484Z,81.12
2019-05-17T00:30:31.743Z,81.16
2019-05-17T00:33:03.630Z,81.22
2019-05-17T00:35:37.643Z,81.23
2019-05-17T00:38:09.702Z,81.13
2019-05-17T00:40:41.712Z,81.16
2019-05-17T00:43:13.614Z,81.28
2019-05-17T00:45:46.803Z,81.34
2019-05-17T00:48:20.250Z,81.39
2019-05-17T00:50:54.106Z,81.44
2019-05-17T00:53:26.916Z,81.41
2019-05-17T00:55:59.011Z,81.37
2019-05-17T00:58:30.830Z,81.27
2019-05-17T01:01:02.818Z,81.43
2019-05-17T01:03:36.313Z,81.57
2019-05-17T01:06:10.324Z,81.64
2019-05-17T01:08:42.295Z,81.59
2019-05-17T01:11:16.377Z,81.66
2019-05-17T01:13:47.861Z,81.74
2019-05-17T01:16:19.833Z,81.76
2019-05-17T01:18:52.115Z,81.76
2019-05-17T01:21:26.268Z,81.75
2019-05-17T01:23:58.213Z,81.67
2019-05-17T01:26:30.351Z,81.62
2019-05-17T01:29:02.264Z,81.65
2019-05-17T01:31:34.196Z,81.65
2019-05-17T01:34:07.290Z,81.69
2019-05-17T01:36:40.153Z,81.60
2019-05-17T01:39:17.183Z,81.56
2019-05-17T01:41:46.842Z,81.57
2019-05-17T01:44:18.865Z,81.55
2019-05-17T01:46:50.741Z,81.52
2019-05-17T01:49:22.653Z,81.46
2019-05-17T01:51:56.869Z,81.44
2019-05-17T01:54:28.844Z,81.39
2019-05-17T01:57:00.969Z,81.40
2019-05-17T01:59:32.722Z,81.47
2019-05-17T02:02:07.759Z,81.44
2019-05-17T02:04:39.553Z,81.43
2019-05-17T02:07:11.999Z,81.41
2019-05-17T02:09:43.747Z,81.44
2019-05-17T02:12:17.309Z,81.44
2019-05-17T02:14:49.248Z,81.39
2019-05-17T02:17:22.490Z,81.42
2019-05-17T02:19:54.316Z,81.40
2019-05-17T02:22:27.196Z,81.44
2019-05-17T02:24:59.427Z,81.41
2019-05-17T02:27:38.226Z,81.38
2019-05-17T02:30:07.461Z,81.29
2019-05-17T02:32:43.103Z,81.26
2019-05-17T02:35:15.281Z,81.27
2019-05-17T02:37:47.474Z,81.20
2019-05-17T02:40:22.706Z,81.12
2019-05-17T02:42:54.677Z,81.06
2019-05-17T02:45:27.310Z,81.06
2019-05-17T02:47:59.386Z,81.08
2019-05-17T02:50:33.186Z,81.14
2019-05-17T02:53:05.410Z,81.25
2019-05-17T02:55:37.212Z,81.33
2019-05-17T02:58:09.079Z,81.45
2019-05-17T03:00:43.963Z,81.42
2019-05-17T03:03:14.657Z,81.43
2019-05-17T03:05:46.441Z,81.49
2019-05-17T03:08:18.544Z,81.45
2019-05-17T03:10:53.171Z,81.55
2019-05-17T03:13:24.041Z,81.63
2019-05-17T03:15:55.810Z,81.75
2019-05-17T03:18:27.685Z,81.80
2019-05-17T03:21:03.344Z,81.93
2019-05-17T03:23:33.357Z,82.03
2019-05-17T03:26:05.195Z,82.08
2019-05-17T03:28:37.094Z,82.09
2019-05-17T03:31:11.365Z,82.07
2019-05-17T03:33:45.928Z,82.10
2019-05-17T03:36:18.154Z,82.06
2019-05-17T03:38:53.438Z,82.02
2019-05-17T03:41:28.905Z,82.00
2019-05-17T03:43:58.262Z,82.03
2019-05-17T03:46:33.168Z,82.06
2019-05-17T03:49:04.174Z,82.12
2019-05-17T03:51:36.536Z,82.04
2019-05-17T03:54:09.084Z,81.89
2019-05-17T03:56:42.700Z,81.63
2019-05-17T03:59:14.591Z,81.51
2019-05-17T04:01:46.362Z,81.45
2019-05-17T04:04:18.562Z,81.42
2019-05-17T04:06:52.631Z,81.28
2019-05-17T04:09:24.630Z,80.93
2019-05-17T05:13:35.076Z,82.29
2019-05-17T05:16:06.845Z,82.59
2019-05-17T05:18:38.714Z,82.50
2019-05-17T05:21:12.222Z,82.13
2019-05-17T05:23:44.056Z,81.41
2019-05-17T05:26:15.863Z,80.81
2019-05-17T05:28:49.677Z,80.21
2019-05-17T05:31:22.772Z,79.97
2019-05-17T05:33:54.770Z,79.97
2019-05-17T05:36:26.573Z,80.00
2019-05-17T05:38:58.702Z,79.89
2019-05-17T05:41:32.036Z,79.64
2019-05-17T05:44:04.476Z,79.55
2019-05-17T05:46:36.341Z,79.43
2019-05-17T05:49:08.396Z,79.40
2019-05-17T05:51:42.279Z,79.54
2019-05-17T05:54:16.079Z,79.44
2019-05-17T05:56:48.830Z,79.11
2019-05-17T05:59:22.455Z,78.91
2019-05-17T06:01:54.950Z,78.74
2019-05-17T06:04:27.034Z,78.48
2019-05-17T06:06:58.817Z,78.26
2019-05-17T06:09:31.843Z,78.16
2019-05-17T06:12:03.812Z,78.09
2019-05-17T06:14:35.665Z,77.92
2019-05-17T06:17:07.481Z,77.77
2019-05-17T06:19:39.540Z,77.52
2019-05-17T06:22:12.014Z,77.04
2019-05-17T06:24:44.895Z,76.17
2019-05-17T06:27:16.744Z,75.68
2019-05-17T06:29:51.333Z,74.49
2019-05-17T06:32:23.000Z,74.19
2019-05-17T06:34:56.348Z,73.72
2019-05-17T06:37:28.164Z,73.18
2019-05-17T06:40:02.415Z,73.03
2019-05-17T06:42:40.962Z,73.05
2019-05-17T06:45:12.216Z,71.64
2019-05-17T06:47:43.104Z,71.68
2019-05-17T06:50:16.911Z,71.90
2019-05-17T06:52:49.014Z,72.11
2019-05-17T06:55:21.165Z,72.30
2019-05-17T06:57:53.628Z,72.35
2019-05-17T07:00:26.779Z,71.77
2019-05-17T07:03:00.541Z,71.15
2019-05-17T07:05:34.550Z,70.99
2019-05-17T07:08:06.459Z,70.77
2019-05-17T07:10:39.784Z,70.82
2019-05-17T07:13:11.834Z,71.41
2019-05-17T07:15:47.845Z,71.79
2019-05-17T07:18:19.319Z,72.32
2019-05-17T07:20:50.930Z,71.53
2019-05-17T07:23:23.065Z,70.67
2019-05-17T07:25:54.978Z,70.35
2019-05-17T07:28:26.877Z,70.53
2019-05-17T07:31:00.366Z,70.14
2019-05-17T07:33:32.527Z,70.41
2019-05-17T07:36:05.195Z,70.11
2019-05-17T07:38:39.481Z,69.79
2019-05-17T07:41:11.246Z,69.40
2019-05-17T07:57:10.169Z,65.54
2019-05-17T07:59:41.744Z,66.94
2019-05-17T08:02:13.642Z,67.31
2019-05-17T08:04:45.422Z,67.49
2019-05-17T08:07:19.525Z,67.48
2019-05-17T08:09:50.818Z,67.28
2019-05-17T08:12:22.831Z,67.36
2019-05-17T08:14:54.887Z,66.39
2019-05-17T08:17:27.209Z,66.11
2019-05-17T08:20:00.610Z,66.24
2019-05-17T08:22:33.031Z,66.52
2019-05-17T08:25:05.050Z,66.69
2019-05-17T08:27:37.180Z,67.36
2019-05-17T08:30:12.698Z,67.97
2019-05-17T08:32:44.968Z,68.33
2019-05-17T08:35:19.697Z,69.41
2019-05-17T08:37:53.540Z,70.16
2019-05-17T08:40:25.510Z,70.32
2019-05-17T08:43:00.006Z,70.49
2019-05-17T08:45:31.246Z,69.97
2019-05-17T08:48:03.452Z,69.97
2019-05-17T08:50:35.559Z,69.72
2019-05-17T08:53:07.698Z,69.63
2019-05-17T08:55:40.862Z,67.84
2019-05-17T08:58:13.338Z,67.47
2019-05-17T09:00:45.166Z,66.04
2019-05-17T09:03:19.433Z,64.97
2019-05-17T09:05:52.711Z,63.57
2019-05-17T09:08:24.264Z,62.85
2019-05-17T09:10:56.099Z,62.86
2019-05-17T09:13:29.853Z,62.21
2019-05-17T09:16:02.262Z,62.30
2019-05-17T09:18:34.085Z,63.17
2019-05-17T09:21:06.189Z,63.26
2019-05-17T09:23:39.678Z,63.90
2019-05-17T09:26:11.595Z,63.72
2019-05-17T09:28:43.400Z,64.11
2019-05-17T09:31:15.197Z,64.28
2019-05-17T09:33:49.571Z,63.73
2019-05-17T09:36:21.065Z,63.94
2019-05-17T09:38:52.893Z,64.26
2019-05-17T09:41:24.701Z,64.37
2019-05-17T09:44:09.610Z,63.79
2019-05-17T09:46:31.049Z,64.35
2019-05-17T09:49:03.050Z,64.11
2019-05-17T09:51:35.089Z,62.90
2019-05-17T09:54:10.095Z,61.65
2019-05-17T09:56:41.488Z,58.90
2019-05-17T09:59:13.680Z,57.35
2019-05-17T10:01:45.583Z,56.64
2019-05-17T10:04:19.754Z,55.78
2019-05-17T10:06:52.891Z,55.18
2019-05-17T10:09:28.607Z,53.91
2019-05-17T10:12:00.404Z,53.34
2019-05-17T10:14:32.376Z,52.45
2019-05-17T10:17:04.883Z,52.73
2019-05-17T10:19:36.817Z,53.00
2019-05-17T10:22:10.402Z,53.86
2019-05-17T10:24:42.639Z,54.06
2019-05-17T10:27:14.835Z,54.43
2019-05-17T10:29:46.772Z,54.78
2019-05-17T10:32:20.495Z,54.94
2019-05-17T10:34:52.431Z,56.08
2019-05-17T10:37:24.398Z,56.75
2019-05-17T10:39:56.455Z,56.54
2019-05-17T10:42:30.597Z,57.49
2019-05-17T10:45:02.143Z,57.82
2019-05-17T10:47:34.000Z,59.26
2019-05-17T10:50:07.076Z,59.41
2019-05-17T10:52:40.875Z,59.49
2019-05-17T10:55:13.168Z,59.96
2019-05-17T10:57:44.999Z,59.85
2019-05-17T11:00:19.824Z,60.85
2019-05-17T11:02:52.425Z,61.95
2019-05-17T11:05:24.515Z,62.99
2019-05-17T11:07:56.983Z,63.18
2019-05-17T11:10:30.000Z,62.74
2019-05-17T11:13:02.033Z,61.77
2019-05-17T11:15:34.102Z,60.54
2019-05-17T11:18:05.980Z,56.93
2019-05-17T11:20:38.250Z,54.84
2019-05-17T11:23:10.435Z,54.86
2019-05-17T11:25:45.679Z,53.70
2019-05-17T11:28:16.578Z,53.02
2019-05-17T11:30:49.160Z,52.94
2019-05-17T11:33:21.039Z,52.86
2019-05-17T11:35:53.198Z,52.54
2019-05-17T11:38:25.536Z,53.75
2019-05-17T11:40:57.876Z,53.27
2019-05-17T11:43:30.643Z,52.83
2019-05-17T11:46:02.811Z,52.01
2019-05-17T11:48:35.012Z,49.95
2019-05-17T11:51:07.400Z,48.78
2019-05-17T11:53:40.337Z,46.91
2019-05-17T11:56:12.730Z,46.96
2019-05-17T11:58:44.925Z,45.60
2019-05-17T12:01:17.280Z,44.90
2019-05-17T12:03:49.138Z,43.96
2019-05-17T12:06:21.194Z,44.86
2019-05-17T12:08:53.350Z,46.61
2019-05-17T12:11:25.847Z,48.27
2019-05-17T12:13:58.156Z,49.17
2019-05-17T12:16:30.458Z,49.23
2019-05-17T12:19:02.733Z,49.64
2019-05-17T12:21:35.120Z,50.46
2019-05-17T12:24:08.196Z,50.73
2019-05-17T12:26:40.889Z,52.04
2019-05-17T12:29:13.449Z,52.77
2019-05-17T12:31:45.820Z,53.40
2019-05-17T12:34:20.235Z,53.70
2019-05-17T12:36:52.987Z,54.05
2019-05-17T12:39:25.169Z,54.11
2019-05-17T12:41:57.784Z,54.25
2019-05-17T12:44:29.883Z,54.74
2019-05-17T12:47:01.767Z,55.08
2019-05-17T12:49:33.835Z,55.26
2019-05-17T12:52:06.125Z,55.81
2019-05-17T12:54:38.364Z,56.64
2019-05-17T12:57:10.591Z,57.10
2019-05-17T12:59:42.890Z,57.93
2019-05-17T13:02:15.278Z,57.89
2019-05-17T13:04:47.409Z,60.68
2019-05-17T13:07:20.043Z,64.63
2019-05-17T13:09:52.545Z,67.76
2019-05-17T13:12:24.737Z,68.50
2019-05-17T13:14:56.865Z,70.90
2019-05-17T13:17:29.210Z,72.64
2019-05-17T13:20:02.208Z,71.42
2019-05-17T13:22:35.962Z,70.18
2019-05-17T13:25:10.041Z,68.99
2019-05-17T13:27:43.176Z,69.24
2019-05-17T13:30:16.210Z,67.98
2019-05-17T13:32:48.621Z,68.09
2019-05-17T13:35:21.283Z,68.53
2019-05-17T13:37:54.072Z,68.73
2019-05-17T13:40:27.243Z,68.45
2019-05-17T13:42:59.957Z,68.15
2019-05-17T13:45:32.567Z,68.51
2019-05-17T13:48:05.304Z,67.94
2019-05-17T13:50:38.038Z,67.50
2019-05-17T13:53:11.000Z,67.53
2019-05-17T13:55:43.743Z,67.89
2019-05-17T13:58:16.396Z,67.28
2019-05-17T14:00:49.332Z,67.21
2019-05-17T14:03:21.862Z,67.01
2019-05-17T14:05:54.241Z,66.49
2019-05-17T14:08:27.459Z,65.25
2019-05-17T14:11:00.117Z,65.67
2019-05-17T14:13:32.876Z,65.58
2019-05-17T14:16:05.066Z,63.85
2019-05-17T14:18:37.512Z,55.22
2019-05-17T14:21:10.413Z,54.52
2019-05-17T14:23:42.571Z,52.29
2019-05-17T14:26:14.926Z,44.73
2019-05-17T14:28:47.629Z,34.31
2019-05-17T14:31:20.160Z,28.47
2019-05-17T14:33:53.203Z,24.70
2019-05-17T14:36:25.743Z,22.48
2019-05-17T14:38:57.981Z,20.56
2019-05-17T14:41:30.035Z,19.44
2019-05-17T14:44:02.128Z,18.12
2019-05-17T14:46:34.048Z,17.37
2019-05-17T14:49:06.137Z,16.59
2019-05-17T14:51:37.992Z,15.58
2019-05-17T14:54:10.107Z,15.42
2019-05-17T14:56:42.013Z,15.40
2019-05-17T14:59:15.216Z,15.01
2019-05-17T15:01:47.075Z,15.32
2019-05-17T15:04:19.286Z,16.07
2019-05-17T15:06:51.104Z,16.56
2019-05-17T15:09:23.503Z,15.55
2019-05-17T15:11:55.677Z,15.25
2019-05-17T15:14:29.654Z,15.06
2019-05-17T15:17:01.535Z,14.58
2019-05-17T15:19:33.937Z,14.79
2019-05-17T15:22:05.862Z,14.52
2019-05-17T15:24:37.970Z,14.66
2019-05-17T15:27:10.212Z,15.29
2019-05-17T15:29:42.209Z,15.07
2019-05-17T15:32:14.003Z,14.70
2019-05-17T15:34:46.092Z,14.25
2019-05-17T15:37:18.193Z,14.57
2019-05-17T15:39:50.342Z,14.13
2019-05-17T15:42:22.520Z,13.63
2019-05-17T15:44:54.409Z,13.92
2019-05-17T15:47:27.436Z,13.77
2019-05-17T15:49:59.417Z,13.64
2019-05-17T15:52:31.242Z,13.44
2019-05-17T15:55:03.231Z,13.92
2019-05-17T15:57:35.297Z,13.68
2019-05-17T16:00:08.463Z,14.38
2019-05-17T16:02:40.527Z,14.45
2019-05-17T16:05:12.622Z,14.40
2019-05-17T16:07:44.506Z,14.89
2019-05-17T16:10:16.774Z,15.16
2019-05-17T16:13:01.978Z,15.26
2019-05-17T16:15:22.862Z,15.59
2019-05-17T16:17:56.836Z,16.25
2019-05-17T16:20:29.041Z,17.26
2019-05-17T16:23:01.038Z,17.93
2019-05-17T16:25:34.062Z,17.71
2019-05-17T16:28:05.962Z,18.75
2019-05-17T16:30:37.939Z,18.87
2019-05-17T16:33:11.011Z,18.62
2019-05-17T16:35:44.188Z,19.01
2019-05-17T16:38:16.045Z,21.28
2019-05-17T16:40:47.928Z,21.90
2019-05-17T16:43:20.944Z,24.25
2019-05-17T16:45:53.151Z,27.77
2019-05-17T16:48:25.088Z,30.44
2019-05-17T16:50:57.189Z,30.95
2019-05-17T16:53:29.155Z,32.98
2019-05-17T16:56:01.020Z,34.89
2019-05-17T16:58:33.105Z,36.92
2019-05-17T17:01:06.284Z,39.04
2019-05-17T17:03:44.212Z,41.13
2019-05-17T17:06:12.876Z,43.13
2019-05-17T17:08:44.995Z,45.46
2019-05-17T17:11:17.123Z,47.47
2019-05-17T17:13:49.430Z,49.62
2019-05-17T17:16:21.640Z,51.45
2019-05-17T17:18:53.456Z,52.50
2019-05-17T17:21:25.573Z,53.72
2019-05-17T17:23:57.390Z,54.96
2019-05-17T17:26:29.618Z,55.94
2019-05-17T17:29:02.162Z,56.55
2019-05-17T17:31:34.275Z,57.05
2019-05-17T17:34:06.313Z,57.85
2019-05-17T17:36:39.158Z,58.44
2019-05-17T17:39:10.990Z,59.36
2019-05-17T17:41:43.024Z,60.00
2019-05-17T17:44:15.086Z,60.74
2019-05-17T17:46:46.953Z,60.65
2019-05-17T17:49:18.734Z,61.17
2019-05-17T17:51:50.796Z,62.06
2019-05-17T17:54:22.629Z,62.55
2019-05-17T17:56:55.255Z,63.01
2019-05-17T17:59:27.315Z,63.69
2019-05-17T18:01:59.962Z,64.03
2019-05-17T18:04:31.993Z,64.44
2019-05-17T18:07:05.167Z,64.83
2019-05-17T18:09:36.999Z,65.15
2019-05-17T18:12:08.861Z,65.38
2019-05-17T18:14:40.729Z,65.62
2019-05-17T18:17:12.634Z,66.17
2019-05-17T18:19:44.462Z,66.54
2019-05-17T18:22:16.324Z,66.86
2019-05-17T18:24:48.278Z,67.09
2019-05-17T18:27:20.201Z,67.49
2019-05-17T18:29:52.173Z,67.79
2019-05-17T18:32:24.357Z,68.02
2019-05-17T18:34:56.195Z,68.43
2019-05-17T18:37:28.313Z,68.67
2019-05-17T18:40:00.317Z,68.80
2019-05-17T18:42:32.418Z,68.96
2019-05-17T18:45:04.656Z,69.26
2019-05-17T18:47:36.656Z,69.51
2019-05-17T18:50:10.146Z,69.76
2019-05-17T18:52:42.786Z,70.05
2019-05-17T18:55:16.718Z,70.16
2019-05-17T18:57:50.324Z,70.35
2019-05-17T19:00:24.095Z,70.53
2019-05-17T19:02:56.888Z,70.65
2019-05-17T19:05:29.004Z,70.78
2019-05-17T19:08:01.393Z,71.11
2019-05-17T19:10:33.432Z,71.11
2019-05-17T19:13:05.789Z,71.27
2019-05-17T19:15:38.369Z,71.46
2019-05-17T19:18:10.689Z,71.61
2019-05-17T19:20:42.887Z,71.67
2019-05-17T19:23:15.180Z,71.75
2019-05-17T19:25:47.189Z,71.83
2019-05-17T19:28:19.288Z,71.89
2019-05-17T19:30:51.488Z,72.05
2019-05-17T19:33:23.824Z,72.22
2019-05-17T19:35:55.980Z,72.30
2019-05-17T19:38:28.568Z,72.31
2019-05-17T19:41:00.634Z,72.45
2019-05-17T19:43:33.356Z,72.57
2019-05-17T19:46:05.573Z,72.56
2019-05-17T19:48:37.707Z,72.66
2019-05-17T19:51:09.925Z,72.66
2019-05-17T19:53:42.333Z,72.70
2019-05-17T19:56:14.357Z,72.69
2019-05-17T19:58:46.700Z,72.95
2019-05-17T20:01:18.963Z,72.92
2019-05-17T20:03:51.156Z,73.01
2019-05-17T20:06:23.140Z,72.99
2019-05-17T20:08:55.424Z,73.00
2019-05-17T20:11:34.485Z,73.06
2019-05-17T20:14:01.227Z,73.07
2019-05-17T20:16:33.303Z,73.09
2019-05-17T20:19:05.573Z,73.18
2019-05-17T20:21:37.613Z,73.32
2019-05-17T20:24:09.943Z,73.42
2019-05-17T20:26:41.835Z,73.46
2019-05-17T20:29:13.875Z,73.62
2019-05-17T20:31:46.317Z,73.57
2019-05-17T20:34:18.541Z,73.62
2019-05-17T20:36:50.382Z,73.62
2019-05-17T20:39:22.342Z,73.71
2019-05-17T20:41:57.343Z,73.87
2019-05-17T20:44:28.173Z,73.97
2019-05-17T20:47:00.127Z,74.02
2019-05-17T20:49:32.351Z,74.04
2019-05-17T20:52:04.341Z,73.96
2019-05-17T20:54:36.635Z,74.13
2019-05-17T20:57:09.004Z,74.30
2019-05-17T20:59:40.958Z,74.42
2019-05-17T21:02:13.093Z,74.45
2019-05-17T21:04:44.995Z,74.52
2019-05-17T21:07:17.807Z,74.73
2019-05-17T21:09:50.059Z,74.82
2019-05-17T21:12:21.965Z,74.88
2019-05-17T21:14:56.399Z,75.08
2019-05-17T21:17:27.785Z,75.15
2019-05-17T21:20:00.752Z,75.31
2019-05-17T21:22:32.537Z,75.38
2019-05-17T21:25:04.715Z,75.49
2019-05-17T21:27:36.592Z,75.58
2019-05-17T21:30:09.961Z,75.66
2019-05-17T21:32:42.021Z,75.86
2019-05-17T21:35:14.197Z,75.96
2019-05-17T21:37:46.025Z,76.00
2019-05-17T21:40:18.501Z,76.05
2019-05-17T21:42:50.291Z,76.07
2019-05-17T21:45:22.507Z,76.06
2019-05-17T21:47:54.594Z,76.07
2019-05-17T21:50:28.455Z,76.11
2019-05-17T21:53:01.391Z,76.16
2019-05-17T21:55:33.313Z,76.18
2019-05-17T21:58:06.267Z,76.18
2019-05-17T22:01:20.946Z,76.21
2019-05-17T22:03:53.289Z,76.30
2019-05-17T22:06:25.483Z,76.18
2019-05-17T22:08:57.309Z,76.59
2019-05-17T22:11:29.297Z,76.34
2019-05-17T22:14:01.203Z,76.11
2019-05-17T22:16:33.417Z,76.03
2019-05-17T22:19:05.641Z,75.92
2019-05-17T22:21:37.785Z,75.81
2019-05-17T22:24:09.606Z,75.80
2019-05-17T22:26:43.337Z,75.85
2019-05-17T22:29:16.283Z,75.78
2019-05-17T22:31:48.268Z,75.79
2019-05-17T22:34:22.091Z,75.89
2019-05-17T22:36:54.164Z,75.95
2019-05-17T22:39:25.955Z,75.89
2019-05-17T22:41:57.815Z,75.91
2019-05-17T22:44:30.544Z,75.90
2019-05-17T22:47:03.628Z,75.80
2019-05-17T22:49:35.713Z,75.74
2019-05-17T22:52:07.588Z,75.77
2019-05-17T22:54:39.414Z,75.75
2019-05-17T22:57:11.286Z,75.63
2019-05-17T22:59:43.901Z,75.48
2019-05-17T23:02:15.832Z,75.31
2019-05-17T23:04:47.959Z,75.34
2019-05-17T23:07:20.197Z,75.24
2019-05-17T23:09:52.119Z,75.36
2019-05-17T23:12:24.222Z,75.27
2019-05-17T23:14:56.006Z,75.21
2019-05-17T23:17:28.158Z,75.17
2019-05-17T23:20:00.391Z,75.21
2019-05-17T23:22:32.485Z,75.33
2019-05-17T23:25:04.401Z,75.47
2019-05-17T23:27:36.409Z,75.71
2019-05-17T23:30:10.151Z,75.74
2019-05-17T23:32:42.193Z,75.78
2019-05-17T23:35:14.308Z,75.80
2019-05-17T23:37:46.323Z,75.97
2019-05-17T23:40:18.244Z,76.03
2019-05-17T23:42:49.988Z,75.93
2019-05-17T23:45:21.829Z,75.85
2019-05-17T23:47:53.641Z,75.79
2019-05-17T23:50:25.545Z,75.82
2019-05-17T23:52:57.779Z,75.78
2019-05-17T23:55:29.591Z,75.77
2019-05-17T23:58:01.916Z,75.77
